sensor_id;sensor_type;location;lat;lon;timestamp;pressure;altitude;pressure_sealevel;temperature;humidity
22930;BME280;11630;42.660;23.292;2022-11-14T00:00:12;68131.76;;;5.38;100.00
22930;BME280;11630;42.660;23.292;2022-11-14T00:02:42;68134.20;;;5.41;100.00
22930;BME280;11630;42.660;23.292;2022-11-14T00:05:13;68137.72;;;5.43;100.00
22930;BME280;11630;42.660;23.292;2022-11-14T00:07:43;68152.06;;;5.58;100.00
22930;BME280;11630;42.660;23.292;2022-11-14T00:10:15;68161.55;;;5.68;100.00
22930;BME280;11630;42.660;23.292;2022-11-14T00:12:46;68166.16;;;5.71;100.00
22930;BME280;11630;42.660;23.292;2022-11-14T00:15:16;68158.30;;;5.65;100.00
22930;BME280;11630;42.660;23.292;2022-11-14T00:17:46;68168.60;;;5.74;100.00
22930;BME280;11630;42.660;23.292;2022-11-14T00:20:17;68201.64;;;6.02;100.00
22930;BME280;11630;42.660;23.292;2022-11-14T00:22:47;68142.62;;;5.53;100.00
22930;BME280;11630;42.660;23.292;2022-11-14T00:25:18;68140.98;;;5.49;100.00
22930;BME280;11630;42.660;23.292;2022-11-14T00:27:49;68136.64;;;5.45;100.00
22930;BME280;11630;42.660;23.292;2022-11-14T00:30:20;68138.25;;;5.44;100.00
22930;BME280;11630;42.660;23.292;2022-11-14T00:32:51;68107.16;;;5.19;100.00
22930;BME280;11630;42.660;23.292;2022-11-14T00:35:22;68092.80;;;5.05;100.00
22930;BME280;11630;42.660;23.292;2022-11-14T00:37:53;68100.90;;;5.10;100.00
22930;BME280;11630;42.660;23.292;2022-11-14T00:40:24;68091.19;;;5.03;100.00
22930;BME280;11630;42.660;23.292;2022-11-14T00:42:56;68094.91;;;4.99;100.00
22930;BME280;11630;42.660;23.292;2022-11-14T00:45:27;68100.93;;;5.12;100.00
22930;BME280;11630;42.660;23.292;2022-11-14T00:47:58;68109.85;;;5.19;100.00
22930;BME280;11630;42.660;23.292;2022-11-14T00:50:29;68113.34;;;5.19;100.00
22930;BME280;11630;42.660;23.292;2022-11-14T00:53:00;68115.49;;;5.18;100.00
22930;BME280;11630;42.660;23.292;2022-11-14T00:55:33;68107.38;;;5.13;100.00
22930;BME280;11630;42.660;23.292;2022-11-14T00:58:03;68105.23;;;5.11;100.00
22930;BME280;11630;42.660;23.292;2022-11-14T01:00:35;68110.92;;;5.20;100.00
22930;BME280;11630;42.660;23.292;2022-11-14T01:03:06;68119.03;;;5.25;100.00
22930;BME280;11630;42.660;23.292;2022-11-14T01:05:47;68116.62;;;5.27;100.00
22930;BME280;11630;42.660;23.292;2022-11-14T01:08:14;68125.27;;;5.32;100.00
22930;BME280;11630;42.660;23.292;2022-11-14T01:10:48;68137.16;;;5.43;100.00
22930;BME280;11630;42.660;23.292;2022-11-14T01:13:19;68133.67;;;5.41;100.00
22930;BME280;11630;42.660;23.292;2022-11-14T01:15:50;68132.87;;;5.44;100.00
22930;BME280;11630;42.660;23.292;2022-11-14T01:18:21;68138.25;;;5.44;100.00
22930;BME280;11630;42.660;23.292;2022-11-14T01:20:52;68142.34;;;5.49;100.00
22930;BME280;11630;42.660;23.292;2022-11-14T01:23:22;68125.78;;;5.30;100.00
22930;BME280;11630;42.660;23.292;2022-11-14T01:25:53;68106.34;;;5.17;100.00
22930;BME280;11630;42.660;23.292;2022-11-14T01:28:24;68111.47;;;5.21;100.00
22930;BME280;11630;42.660;23.292;2022-11-14T01:30:55;68107.16;;;5.19;100.00
22930;BME280;11630;42.660;23.292;2022-11-14T01:33:26;68104.69;;;5.13;100.00
22930;BME280;11630;42.660;23.292;2022-11-14T01:36:00;68083.88;;;4.95;100.00
22930;BME280;11630;42.660;23.292;2022-11-14T01:38:30;68086.83;;;4.97;100.00
22930;BME280;11630;42.660;23.292;2022-11-14T01:41:03;68081.70;;;4.93;100.00
22930;BME280;11630;42.660;23.292;2022-11-14T01:43:38;68078.73;;;4.89;100.00
22930;BME280;11630;42.660;23.292;2022-11-14T01:49:07;68098.20;;;5.07;100.00
22930;BME280;11630;42.660;23.292;2022-11-14T01:51:41;68106.84;;;5.13;100.00
22930;BME280;11630;42.660;23.292;2022-11-14T01:54:13;68107.94;;;5.16;100.00
22930;BME280;11630;42.660;23.292;2022-11-14T01:56:46;68103.05;;;5.09;100.00
22930;BME280;11630;42.660;23.292;2022-11-14T01:59:20;68091.97;;;5.00;100.00
22930;BME280;11630;42.660;23.292;2022-11-14T02:01:50;68082.78;;;4.94;100.00
22930;BME280;11630;42.660;23.292;2022-11-14T02:04:27;68092.23;;;5.02;100.00
22930;BME280;11630;42.660;23.292;2022-11-14T02:06:59;68098.75;;;5.08;100.00
22930;BME280;11630;42.660;23.292;2022-11-14T02:09:34;68102.83;;;5.15;100.00
22930;BME280;11630;42.660;23.292;2022-11-14T02:12:08;68096.56;;;5.03;100.00
22930;BME280;11630;42.660;23.292;2022-11-14T02:14:38;68076.83;;;4.89;100.00
22930;BME280;11630;42.660;23.292;2022-11-14T02:17:10;68085.47;;;4.94;100.00
22930;BME280;11630;42.660;23.292;2022-11-14T02:19:52;68079.56;;;4.94;100.00
22930;BME280;11630;42.660;23.292;2022-11-14T02:22:22;68088.76;;;5.02;100.00
22930;BME280;11630;42.660;23.292;2022-11-14T02:24:53;68096.31;;;5.07;100.00
22930;BME280;11630;42.660;23.292;2022-11-14T02:27:25;68094.96;;;5.04;100.00
22930;BME280;11630;42.660;23.292;2022-11-14T02:30:03;68101.19;;;5.11;100.00
22930;BME280;11630;42.660;23.292;2022-11-14T02:32:34;68109.03;;;5.17;100.00
22930;BME280;11630;42.660;23.292;2022-11-14T02:35:04;68120.66;;;5.29;100.00
22930;BME280;11630;42.660;23.292;2022-11-14T02:37:34;68102.30;;;5.17;100.00
22930;BME280;11630;42.660;23.292;2022-11-14T02:40:05;68106.31;;;5.12;100.00
22930;BME280;11630;42.660;23.292;2022-11-14T02:42:36;68106.86;;;5.15;100.00
22930;BME280;11630;42.660;23.292;2022-11-14T02:45:08;68115.52;;;5.23;100.00
22930;BME280;11630;42.660;23.292;2022-11-14T02:47:41;68106.08;;;5.18;100.00
22930;BME280;11630;42.660;23.292;2022-11-14T02:50:11;68108.47;;;5.17;100.00
22930;BME280;11630;42.660;23.292;2022-11-14T02:52:43;68113.89;;;5.19;100.00
22930;BME280;11630;42.660;23.292;2022-11-14T02:55:12;68105.76;;;5.12;100.00
22930;BME280;11630;42.660;23.292;2022-11-14T02:57:43;68114.17;;;5.23;100.00
22930;BME280;11630;42.660;23.292;2022-11-14T03:00:16;68110.89;;;5.15;100.00
22930;BME280;11630;42.660;23.292;2022-11-14T03:02:48;68095.50;;;5.07;100.00
22930;BME280;11630;42.660;23.292;2022-11-14T03:05:19;68072.51;;;4.85;100.00
22930;BME280;11630;42.660;23.292;2022-11-14T03:07:57;68060.31;;;4.70;100.00
22930;BME280;11630;42.660;23.292;2022-11-14T03:10:23;68049.75;;;4.61;100.00
22930;BME280;11630;42.660;23.292;2022-11-14T03:12:57;68035.72;;;4.53;100.00
22930;BME280;11630;42.660;23.292;2022-11-14T03:15:37;68034.11;;;4.52;100.00
22930;BME280;11630;42.660;23.292;2022-11-14T03:18:07;68033.83;;;4.51;100.00
22930;BME280;11630;42.660;23.292;2022-11-14T03:20:37;68058.98;;;4.72;100.00
22930;BME280;11630;42.660;23.292;2022-11-14T03:23:10;68064.13;;;4.78;100.00
22930;BME280;11630;42.660;23.292;2022-11-14T03:25:45;68065.72;;;4.75;100.00
22930;BME280;11630;42.660;23.292;2022-11-14T03:28:15;68060.58;;;4.71;100.00
22930;BME280;11630;42.660;23.292;2022-11-14T03:30:46;68053.83;;;4.66;100.00
22930;BME280;11630;42.660;23.292;2022-11-14T03:33:17;68048.98;;;4.64;100.00
22930;BME280;11630;42.660;23.292;2022-11-14T03:35:48;68054.09;;;4.65;100.00
22930;BME280;11630;42.660;23.292;2022-11-14T03:38:20;68050.05;;;4.63;100.00
22930;BME280;11630;42.660;23.292;2022-11-14T03:40:51;68067.61;;;4.75;100.00
22930;BME280;11630;42.660;23.292;2022-11-14T03:43:21;68068.17;;;4.81;100.00
22930;BME280;11630;42.660;23.292;2022-11-14T03:45:53;68058.98;;;4.72;100.00
22930;BME280;11630;42.660;23.292;2022-11-14T03:48:23;68074.64;;;4.84;100.00
22930;BME280;11630;42.660;23.292;2022-11-14T03:50:54;68065.47;;;4.78;100.00
22930;BME280;11630;42.660;23.292;2022-11-14T03:53:23;68066.54;;;4.77;100.00
22930;BME280;11630;42.660;23.292;2022-11-14T03:55:55;68082.48;;;4.90;100.00
22930;BME280;11630;42.660;23.292;2022-11-14T03:58:25;68083.30;;;4.92;100.00
22930;BME280;11630;42.660;23.292;2022-11-14T04:00:56;68070.33;;;4.80;100.00
22930;BME280;11630;42.660;23.292;2022-11-14T04:03:26;68121.48;;;5.29;100.00
22930;BME280;11630;42.660;23.292;2022-11-14T04:05:57;68089.83;;;5.01;100.00
22930;BME280;11630;42.660;23.292;2022-11-14T04:08:27;68090.89;;;5.02;100.00
22930;BME280;11630;42.660;23.292;2022-11-14T04:10:57;68081.43;;;4.92;100.00
22930;BME280;11630;42.660;23.292;2022-11-14T04:13:30;68084.41;;;4.96;100.00
22930;BME280;11630;42.660;23.292;2022-11-14T04:16:00;68084.39;;;4.93;100.00
22930;BME280;11630;42.660;23.292;2022-11-14T04:18:32;68077.38;;;4.89;100.00
22930;BME280;11630;42.660;23.292;2022-11-14T04:21:02;68081.94;;;4.87;100.00
22930;BME280;11630;42.660;23.292;2022-11-14T04:23:33;68049.75;;;4.61;100.00
22930;BME280;11630;42.660;23.292;2022-11-14T04:26:04;68027.61;;;4.44;100.00
22930;BME280;11630;42.660;23.292;2022-11-14T04:28:35;68049.75;;;4.61;100.00
22930;BME280;11630;42.660;23.292;2022-11-14T04:31:06;68053.82;;;4.64;100.00
22930;BME280;11630;42.660;23.292;2022-11-14T04:33:37;68051.09;;;4.61;100.00
22930;BME280;11630;42.660;23.292;2022-11-14T04:36:08;68037.61;;;4.52;100.00
22930;BME280;11630;42.660;23.292;2022-11-14T04:38:38;68046.52;;;4.58;100.00
22930;BME280;11630;42.660;23.292;2022-11-14T04:41:09;68032.75;;;4.50;100.00
22930;BME280;11630;42.660;23.292;2022-11-14T04:43:39;68047.06;;;4.61;100.00
22930;BME280;11630;42.660;23.292;2022-11-14T04:46:10;68054.88;;;4.65;100.00
22930;BME280;11630;42.660;23.292;2022-11-14T04:48:41;68050.58;;;4.63;100.00
22930;BME280;11630;42.660;23.292;2022-11-14T04:51:11;68055.95;;;4.63;100.00
22930;BME280;11630;42.660;23.292;2022-11-14T04:53:43;68047.89;;;4.63;100.00
22930;BME280;11630;42.660;23.292;2022-11-14T04:56:12;68039.20;;;4.51;100.00
22930;BME280;11630;42.660;23.292;2022-11-14T04:58:42;68038.41;;;4.53;100.00
22930;BME280;11630;42.660;23.292;2022-11-14T05:01:14;68023.55;;;4.39;100.00
22930;BME280;11630;42.660;23.292;2022-11-14T05:03:43;68038.40;;;4.51;100.00
22930;BME280;11630;42.660;23.292;2022-11-14T05:06:14;68042.48;;;4.58;100.00
22930;BME280;11630;42.660;23.292;2022-11-14T05:08:45;68055.71;;;4.67;100.00
22930;BME280;11630;42.660;23.292;2022-11-14T05:11:16;68034.92;;;4.52;100.00
22930;BME280;11630;42.660;23.292;2022-11-14T05:13:47;68042.22;;;4.57;100.00
22930;BME280;11630;42.660;23.292;2022-11-14T05:16:17;68049.75;;;4.61;100.00
22930;BME280;11630;42.660;23.292;2022-11-14T05:18:48;68041.15;;;4.58;100.00
22930;BME280;11630;42.660;23.292;2022-11-14T05:21:19;68031.36;;;4.42;100.00
22930;BME280;11630;42.660;23.292;2022-11-14T05:23:49;68018.63;;;4.29;100.00
22930;BME280;11630;42.660;23.292;2022-11-14T05:26:20;68019.22;;;4.37;100.00
22930;BME280;11630;42.660;23.292;2022-11-14T05:28:53;68023.01;;;4.41;100.00
22930;BME280;11630;42.660;23.292;2022-11-14T05:31:23;68023.55;;;4.39;100.00
22930;BME280;11630;42.660;23.292;2022-11-14T05:33:54;68032.48;;;4.51;100.00
22930;BME280;11630;42.660;23.292;2022-11-14T05:36:25;68034.61;;;4.48;100.00
22930;BME280;11630;42.660;23.292;2022-11-14T05:38:56;68029.50;;;4.47;100.00
22930;BME280;11630;42.660;23.292;2022-11-14T05:41:27;68052.44;;;4.61;100.00
22930;BME280;11630;42.660;23.292;2022-11-14T05:43:58;68047.59;;;4.57;100.00
22930;BME280;11630;42.660;23.292;2022-11-14T05:46:28;68053.30;;;4.68;100.00
22930;BME280;11630;42.660;23.292;2022-11-14T05:49:00;68064.38;;;4.77;100.00
22930;BME280;11630;42.660;23.292;2022-11-14T05:51:31;68042.44;;;4.53;100.00
22930;BME280;11630;42.660;23.292;2022-11-14T05:54:02;68052.20;;;4.65;100.00
22930;BME280;11630;42.660;23.292;2022-11-14T05:56:33;68061.66;;;4.72;100.00
22930;BME280;11630;42.660;23.292;2022-11-14T05:59:04;68050.33;;;4.67;100.00
22930;BME280;11630;42.660;23.292;2022-11-14T06:01:35;68063.78;;;4.69;100.00
22930;BME280;11630;42.660;23.292;2022-11-14T06:04:06;68061.42;;;4.76;100.00
22930;BME280;11630;42.660;23.292;2022-11-14T06:06:36;68071.93;;;4.79;100.00
22930;BME280;11630;42.660;23.292;2022-11-14T06:09:08;68067.89;;;4.79;100.00
22930;BME280;11630;42.660;23.292;2022-11-14T06:11:39;68065.47;;;4.78;100.00
22930;BME280;11630;42.660;23.292;2022-11-14T06:14:10;68071.66;;;4.78;100.00
22930;BME280;11630;42.660;23.292;2022-11-14T06:16:41;68070.33;;;4.80;100.00
22930;BME280;11630;42.660;23.292;2022-11-14T06:19:12;68085.22;;;4.95;100.00
22930;BME280;11630;42.660;23.292;2022-11-14T06:21:43;68085.22;;;4.95;100.00
22930;BME280;11630;42.660;23.292;2022-11-14T06:24:14;68090.92;;;5.04;100.00
22930;BME280;11630;42.660;23.292;2022-11-14T06:26:45;68089.25;;;4.95;100.00
22930;BME280;11630;42.660;23.292;2022-11-14T06:29:16;68091.45;;;5.02;100.00
22930;BME280;11630;42.660;23.292;2022-11-14T06:31:47;68084.39;;;4.93;100.00
22930;BME280;11630;42.660;23.292;2022-11-14T06:34:18;68086.33;;;5.01;100.00
22930;BME280;11630;42.660;23.292;2022-11-14T06:36:49;68098.48;;;5.09;100.00
22930;BME280;11630;42.660;23.292;2022-11-14T06:39:19;68101.45;;;5.10;100.00
22930;BME280;11630;42.660;23.292;2022-11-14T06:41:50;68106.86;;;5.15;100.00
22930;BME280;11630;42.660;23.292;2022-11-14T06:44:20;68063.58;;;4.75;100.00
22930;BME280;11630;42.660;23.292;2022-11-14T06:46:50;68104.16;;;5.15;100.00
22930;BME280;11630;42.660;23.292;2022-11-14T06:49:21;68107.42;;;5.18;100.00
22930;BME280;11630;42.660;23.292;2022-11-14T06:51:55;68113.91;;;5.24;100.00
22930;BME280;11630;42.660;23.292;2022-11-14T06:54:25;68103.63;;;5.12;100.00
22930;BME280;11630;42.660;23.292;2022-11-14T06:56:59;68100.37;;;5.09;100.00
22930;BME280;11630;42.660;23.292;2022-11-14T06:59:29;68124.99;;;5.31;100.00
22930;BME280;11630;42.660;23.292;2022-11-14T07:02:03;68108.20;;;5.15;100.00
22930;BME280;11630;42.660;23.292;2022-11-14T07:04:34;68123.66;;;5.33;100.00
22930;BME280;11630;42.660;23.292;2022-11-14T07:07:05;68145.31;;;5.53;100.00
22930;BME280;11630;42.660;23.292;2022-11-14T07:09:36;68150.44;;;5.54;100.00
22930;BME280;11630;42.660;23.292;2022-11-14T07:12:08;68163.72;;;5.67;100.00
22930;BME280;11630;42.660;23.292;2022-11-14T07:14:39;68168.84;;;5.71;100.00
22930;BME280;11630;42.660;23.292;2022-11-14T07:17:10;68172.61;;;5.72;100.00
22930;BME280;11630;42.660;23.292;2022-11-14T07:19:41;68177.81;;;5.80;100.00
22930;BME280;11630;42.660;23.292;2022-11-14T07:22:11;68176.45;;;5.78;100.00
22930;BME280;11630;42.660;23.292;2022-11-14T07:24:42;68189.19;;;5.91;100.00
22930;BME280;11630;42.660;23.292;2022-11-14T07:27:13;68179.17;;;5.83;100.00
22930;BME280;11630;42.660;23.292;2022-11-14T07:29:44;68212.71;;;6.08;100.00
22930;BME280;11630;42.660;23.292;2022-11-14T07:32:15;68218.41;;;6.12;100.00
22930;BME280;11630;42.660;23.292;2022-11-14T07:34:49;68221.13;;;6.20;100.00
22930;BME280;11630;42.660;23.292;2022-11-14T07:37:21;68185.13;;;5.88;100.00
22930;BME280;11630;42.660;23.292;2022-11-14T07:39:51;68208.14;;;6.08;100.00
22930;BME280;11630;42.660;23.292;2022-11-14T07:42:22;68211.66;;;6.10;100.00
22930;BME280;11630;42.660;23.292;2022-11-14T07:44:53;68228.70;;;6.24;100.00
22930;BME280;11630;42.660;23.292;2022-11-14T07:47:25;68216.28;;;6.18;100.00
22930;BME280;11630;42.660;23.292;2022-11-14T07:49:56;68218.99;;;6.20;100.00
22930;BME280;11630;42.660;23.292;2022-11-14T07:52:26;68263.66;;;6.58;100.00
22930;BME280;11630;42.660;23.292;2022-11-14T07:54:57;68248.23;;;6.47;100.00
22930;BME280;11630;42.660;23.292;2022-11-14T07:57:28;68258.24;;;6.50;100.00
22930;BME280;11630;42.660;23.292;2022-11-14T07:59:59;68259.34;;;6.56;100.00
22930;BME280;11630;42.660;23.292;2022-11-14T08:02:30;68171.33;;;5.77;100.00
22930;BME280;11630;42.660;23.292;2022-11-14T08:05:01;68166.42;;;5.70;100.00
22930;BME280;11630;42.660;23.292;2022-11-14T08:07:30;68210.57;;;6.09;100.00
22930;BME280;11630;42.660;23.292;2022-11-14T08:10:01;68225.75;;;6.25;100.00
22930;BME280;11630;42.660;23.292;2022-11-14T08:12:32;68211.10;;;6.09;100.00
22930;BME280;11630;42.660;23.292;2022-11-14T08:15:03;68234.97;;;6.34;100.00
22930;BME280;11630;42.660;23.292;2022-11-14T08:17:34;68210.82;;;6.06;100.00
22930;BME280;11630;42.660;23.292;2022-11-14T08:20:09;68189.45;;;5.92;100.00
22930;BME280;11630;42.660;23.292;2022-11-14T08:22:39;68172.95;;;5.78;100.00
22930;BME280;11630;42.660;23.292;2022-11-14T08:25:10;68166.69;;;5.71;100.00
22930;BME280;11630;42.660;23.292;2022-11-14T08:27:41;68146.39;;;5.54;100.00
22930;BME280;11630;42.660;23.292;2022-11-14T08:30:12;68160.98;;;5.65;100.00
22930;BME280;11630;42.660;23.292;2022-11-14T08:32:44;68178.34;;;5.81;100.00
22930;BME280;11630;42.660;23.292;2022-11-14T08:35:15;68184.05;;;5.90;100.00
22930;BME280;11630;42.660;23.292;2022-11-14T08:37:45;68170.48;;;5.75;100.00
22930;BME280;11630;42.660;23.292;2022-11-14T08:40:16;68183.77;;;5.86;100.00
22930;BME280;11630;42.660;23.292;2022-11-14T08:42:46;68232.23;;;6.29;100.00
22930;BME280;11630;42.660;23.292;2022-11-14T08:45:19;68211.09;;;6.07;100.00
22930;BME280;11630;42.660;23.292;2022-11-14T08:47:53;68176.73;;;5.79;100.00
22930;BME280;11630;42.660;23.292;2022-11-14T08:50:23;68228.95;;;6.18;100.00
22930;BME280;11630;42.660;23.292;2022-11-14T08:52:54;68255.81;;;6.52;100.00
22930;BME280;11630;42.660;23.292;2022-11-14T08:55:25;68258.52;;;6.54;100.00
22930;BME280;11630;42.660;23.292;2022-11-14T08:58:04;68284.53;;;6.76;100.00
22930;BME280;11630;42.660;23.292;2022-11-14T09:00:38;68240.92;;;6.39;100.00
22930;BME280;11630;42.660;23.292;2022-11-14T09:03:09;68293.48;;;6.85;100.00
22930;BME280;11630;42.660;23.292;2022-11-14T09:05:42;68317.89;;;7.07;100.00
22930;BME280;11630;42.660;23.292;2022-11-14T09:08:13;68319.52;;;7.09;100.00
22930;BME280;11630;42.660;23.292;2022-11-14T09:10:44;68342.02;;;7.31;100.00
22930;BME280;11630;42.660;23.292;2022-11-14T09:13:14;68318.68;;;7.04;100.00
22930;BME280;11630;42.660;23.292;2022-11-14T09:15:44;68345.25;;;7.31;100.00
22930;BME280;11630;42.660;23.292;2022-11-14T09:18:15;68341.72;;;7.27;100.00
22930;BME280;11630;42.660;23.292;2022-11-14T09:20:46;68374.00;;;7.58;100.00
22930;BME280;11630;42.660;23.292;2022-11-14T09:23:17;68352.31;;;7.38;100.00
22930;BME280;11630;42.660;23.292;2022-11-14T09:25:48;68318.16;;;7.06;100.00
22930;BME280;11630;42.660;23.292;2022-11-14T09:28:19;68343.12;;;7.34;100.00
22930;BME280;11630;42.660;23.292;2022-11-14T09:30:51;68397.09;;;7.82;100.00
22930;BME280;11630;42.660;23.292;2022-11-14T09:33:22;68427.45;;;8.05;100.00
22930;BME280;11630;42.660;23.292;2022-11-14T09:36:01;68473.89;;;8.49;100.00
22930;BME280;11630;42.660;23.292;2022-11-14T09:38:33;68496.44;;;8.71;100.00
22930;BME280;11630;42.660;23.292;2022-11-14T09:46:47;68577.10;;;9.48;100.00
22930;BME280;11630;42.660;23.292;2022-11-14T09:49:33;68592.58;;;9.56;100.00
22930;BME280;11630;42.660;23.292;2022-11-14T09:55:20;68626.28;;;9.90;100.00
22930;BME280;11630;42.660;23.292;2022-11-14T09:57:46;68643.17;;;10.05;100.00
22930;BME280;11630;42.660;23.292;2022-11-14T10:00:21;68735.09;;;10.91;100.00
22930;BME280;11630;42.660;23.292;2022-11-14T10:03:11;68821.92;;;11.64;100.00
22930;BME280;11630;42.660;23.292;2022-11-14T10:09:10;68892.44;;;12.23;100.00
22930;BME280;11630;42.660;23.292;2022-11-14T10:11:49;68911.79;;;12.46;100.00
22930;BME280;11630;42.660;23.292;2022-11-14T10:23:00;69015.93;;;13.46;100.00
22930;BME280;11630;42.660;23.292;2022-11-14T10:28:28;69076.21;;;14.00;96.11
22930;BME280;11630;42.660;23.292;2022-11-14T10:31:02;69043.75;;;13.67;98.17
22930;BME280;11630;42.660;23.292;2022-11-14T10:36:18;69148.00;;;14.59;93.69
22930;BME280;11630;42.660;23.292;2022-11-14T10:38:53;69165.73;;;14.79;91.94
22930;BME280;11630;42.660;23.292;2022-11-14T10:41:22;69127.25;;;14.43;93.35
22930;BME280;11630;42.660;23.292;2022-11-14T10:43:55;69191.41;;;14.95;91.89
22930;BME280;11630;42.660;23.292;2022-11-14T10:46:39;69097.78;;;14.18;93.93
22930;BME280;11630;42.660;23.292;2022-11-14T10:49:16;69177.75;;;14.90;91.96
22930;BME280;11630;42.660;23.292;2022-11-14T10:51:58;69174.47;;;14.84;90.80
22930;BME280;11630;42.660;23.292;2022-11-14T10:54:37;69234.59;;;15.29;89.56
22930;BME280;11630;42.660;23.292;2022-11-14T10:57:12;69116.88;;;14.28;93.08
22930;BME280;11630;42.660;23.292;2022-11-14T10:59:36;69177.22;;;14.82;90.96
22930;BME280;11630;42.660;23.292;2022-11-14T11:02:07;69022.19;;;13.46;95.61
22930;BME280;11630;42.660;23.292;2022-11-14T11:04:42;69163.27;;;14.75;97.09
22930;BME280;11630;42.660;23.292;2022-11-14T11:07:21;69245.48;;;15.49;91.20
22930;BME280;11630;42.660;23.292;2022-11-14T11:10:21;69249.57;;;15.61;90.74
22930;BME280;11630;42.660;23.292;2022-11-14T11:13:10;69273.08;;;15.75;87.92
22930;BME280;11630;42.660;23.292;2022-11-14T11:15:43;69283.75;;;15.79;85.79
22930;BME280;11630;42.660;23.292;2022-11-14T11:21:09;69188.38;;;15.01;86.15
22930;BME280;11630;42.660;23.292;2022-11-14T11:23:54;69196.59;;;15.01;85.14
22930;BME280;11630;42.660;23.292;2022-11-14T11:26:27;69229.67;;;15.30;83.56
22930;BME280;11630;42.660;23.292;2022-11-14T11:31:51;69096.13;;;14.17;88.33
22930;BME280;11630;42.660;23.292;2022-11-14T11:34:31;69048.66;;;13.71;89.93
22930;BME280;11630;42.660;23.292;2022-11-14T11:37:13;69075.66;;;13.99;88.34
22930;BME280;11630;42.660;23.292;2022-11-14T11:39:45;69030.38;;;13.58;91.88
22930;BME280;11630;42.660;23.292;2022-11-14T11:42:17;69128.90;;;14.39;88.03
22930;BME280;11630;42.660;23.292;2022-11-14T11:44:49;69121.80;;;14.40;87.46
22930;BME280;11630;42.660;23.292;2022-11-14T11:47:19;69083.30;;;14.04;88.04
22930;BME280;11630;42.660;23.292;2022-11-14T11:49:52;68977.48;;;13.10;93.51
22930;BME280;11630;42.660;23.292;2022-11-14T11:52:47;68965.77;;;12.96;94.46
22930;BME280;11630;42.660;23.292;2022-11-14T11:55:20;68964.69;;;12.92;94.71
22930;BME280;11630;42.660;23.292;2022-11-14T12:00:29;68828.72;;;11.77;100.00
22930;BME280;11630;42.660;23.292;2022-11-14T12:03:01;68853.50;;;12.03;100.00
22930;BME280;11630;42.660;23.292;2022-11-14T12:05:39;68882.09;;;12.21;100.00
22930;BME280;11630;42.660;23.292;2022-11-14T12:10:56;68907.69;;;12.39;99.54
22930;BME280;11630;42.660;23.292;2022-11-14T12:16:26;68845.61;;;11.90;100.00
22930;BME280;11630;42.660;23.292;2022-11-14T12:21:50;68906.34;;;12.44;100.00
22930;BME280;11630;42.660;23.292;2022-11-14T12:30:23;68847.22;;;11.84;100.00
22930;BME280;11630;42.660;23.292;2022-11-14T12:32:49;68837.17;;;11.76;100.00
22930;BME280;11630;42.660;23.292;2022-11-14T12:35:31;68830.37;;;11.78;100.00
22930;BME280;11630;42.660;23.292;2022-11-14T12:38:04;68826.27;;;11.68;100.00
22930;BME280;11630;42.660;23.292;2022-11-14T12:40:37;68846.16;;;11.88;100.00
22930;BME280;11630;42.660;23.292;2022-11-14T12:43:35;68861.66;;;12.03;100.00
22930;BME280;11630;42.660;23.292;2022-11-14T12:46:09;68857.31;;;11.99;100.00
22930;BME280;11630;42.660;23.292;2022-11-14T12:48:43;68871.75;;;12.09;100.00
22930;BME280;11630;42.660;23.292;2022-11-14T12:54:04;68888.09;;;12.24;100.00
22930;BME280;11630;42.660;23.292;2022-11-14T12:56:41;68864.39;;;12.01;100.00
22930;BME280;11630;42.660;23.292;2022-11-14T12:59:38;68886.99;;;12.27;100.00
22930;BME280;11630;42.660;23.292;2022-11-14T13:15:55;68885.91;;;12.22;100.00
22930;BME280;11630;42.660;23.292;2022-11-14T13:19:00;68865.77;;;12.11;100.00
22930;BME280;11630;42.660;23.292;2022-11-14T13:24:19;68873.13;;;12.16;100.00
22930;BME280;11630;42.660;23.292;2022-11-14T13:26:52;68901.71;;;12.36;100.00
22930;BME280;11630;42.660;23.292;2022-11-14T13:32:11;68897.63;;;12.38;100.00
22930;BME280;11630;42.660;23.292;2022-11-14T13:34:51;68901.17;;;12.45;100.00
22930;BME280;11630;42.660;23.292;2022-11-14T13:43:13;68917.52;;;12.55;100.00
22930;BME280;11630;42.660;23.292;2022-11-14T13:45:47;68922.70;;;12.56;100.00
22930;BME280;11630;42.660;23.292;2022-11-14T13:48:26;68921.59;;;12.60;100.00
22930;BME280;11630;42.660;23.292;2022-11-14T13:50:56;68937.41;;;12.67;100.00
22930;BME280;11630;42.660;23.292;2022-11-14T13:53:30;68905.52;;;12.44;100.00
22930;BME280;11630;42.660;23.292;2022-11-14T13:56:10;68884.29;;;12.30;100.00
22930;BME280;11630;42.660;23.292;2022-11-14T14:07:12;68885.36;;;12.24;100.00
22930;BME280;11630;42.660;23.292;2022-11-14T14:10:06;68900.63;;;12.32;100.00
22930;BME280;11630;42.660;23.292;2022-11-14T14:12:47;68897.63;;;12.33;100.00
22930;BME280;11630;42.660;23.292;2022-11-14T14:15:19;68873.13;;;12.19;100.00
22930;BME280;11630;42.660;23.292;2022-11-14T14:21:00;68863.02;;;12.06;100.00
22930;BME280;11630;42.660;23.292;2022-11-14T14:29:40;68849.70;;;11.90;100.00
22930;BME280;11630;42.660;23.292;2022-11-14T14:32:12;68855.41;;;11.89;100.00
22930;BME280;11630;42.660;23.292;2022-11-14T14:34:43;68837.70;;;11.79;100.00
22930;BME280;11630;42.660;23.292;2022-11-14T14:37:24;68822.46;;;11.70;100.00
22930;BME280;11630;42.660;23.292;2022-11-14T14:40:06;68815.93;;;11.64;100.00
22930;BME280;11630;42.660;23.292;2022-11-14T14:42:38;68818.38;;;11.62;100.00
22930;BME280;11630;42.660;23.292;2022-11-14T14:45:16;68800.67;;;11.45;100.00
22930;BME280;11630;42.660;23.292;2022-11-14T14:48:00;68796.86;;;11.42;100.00
22930;BME280;11630;42.660;23.292;2022-11-14T14:50:40;68782.16;;;11.28;100.00
22930;BME280;11630;42.660;23.292;2022-11-14T14:53:27;68759.30;;;11.12;100.00